Time;durP1;ratioP1;P1;durP2;ratioP2;P2;SDS_P1;SDS_P2;PMS_P1;PMS_P2;Temp;Humidity;BMP_temperature;BMP_pressure;BME280_temperature;BME280_humidity;BME280_pressure;Samples;Min_cycle;Max_cycle;Signal;HPM_P1;HPM_P2
2022/08/26 00:00:52;;;;;;;7.63;6.90;;;;;;;;;;4972790;28;20482;-51
2022/08/26 00:03:18;;;;;;;8.33;7.53;;;;;;;;;;4975742;28;20518;-51
2022/08/26 00:05:45;;;;;;;8.97;7.10;;;;;;;;;;4992448;28;20723;-50
2022/08/26 00:08:12;;;;;;;8.83;7.93;;;;;;;;;;4992373;28;20398;-50
2022/08/26 00:10:39;;;;;;;9.57;8.30;;;;;;;;;;4991796;28;20454;-52
2022/08/26 00:13:05;;;;;;;9.07;7.37;;;;;;;;;;4991101;28;20799;-50
2022/08/26 00:15:31;;;;;;;9.30;8.20;;;;;;;;;;4990545;28;20450;-50
2022/08/26 00:17:57;;;;;;;9.73;8.23;;;;;;;;;;4992384;28;20420;-50
2022/08/26 00:20:26;;;;;;;13.70;10.10;;;;;;;;;;4991611;28;20455;-50
2022/08/26 00:22:52;;;;;;;16.57;11.43;;;;;;;;;;4991767;28;20458;-50
2022/08/26 00:25:18;;;;;;;21.27;12.53;;;;;;;;;;4991866;28;20954;-52
2022/08/26 00:27:44;;;;;;;19.73;12.30;;;;;;;;;;4992296;28;20843;-51
2022/08/26 00:30:12;;;;;;;17.93;12.10;;;;;;;;;;4991844;28;20440;-52
2022/08/26 00:32:38;;;;;;;14.10;9.60;;;;;;;;;;4991713;28;20561;-50
2022/08/26 00:35:05;;;;;;;12.30;9.13;;;;;;;;;;4991907;28;20421;-51
2022/08/26 00:37:31;;;;;;;10.23;8.20;;;;;;;;;;4991966;28;20431;-52
2022/08/26 00:39:57;;;;;;;13.20;7.77;;;;;;;;;;4991326;28;20531;-50
2022/08/26 00:42:23;;;;;;;11.63;7.47;;;;;;;;;;4991539;28;20976;-50
2022/08/26 00:44:49;;;;;;;7.93;7.13;;;;;;;;;;4989313;28;20969;-52
2022/08/26 00:47:21;;;;;;;8.73;7.13;;;;;;;;;;4991405;28;20490;-52
2022/08/26 00:49:48;;;;;;;8.87;8.07;;;;;;;;;;4991486;28;20522;-50
2022/08/26 00:52:17;;;;;;;8.00;7.20;;;;;;;;;;4991877;28;20414;-51
2022/08/26 00:54:46;;;;;;;10.10;7.87;;;;;;;;;;4991973;28;20424;-51
2022/08/26 00:57:14;;;;;;;11.93;8.90;;;;;;;;;;4991974;28;20414;-50
2022/08/26 00:59:41;;;;;;;15.47;9.00;;;;;;;;;;4990806;28;20451;-49
2022/08/26 01:02:07;;;;;;;11.10;9.87;;;;;;;;;;4990959;28;20841;-50
2022/08/26 01:04:35;;;;;;;12.67;8.37;;;;;;;;;;4991380;28;20451;-50
2022/08/26 01:07:02;;;;;;;12.53;9.57;;;;;;;;;;4991314;28;20420;-51
2022/08/26 01:09:28;;;;;;;9.80;8.80;;;;;;;;;;4991954;28;20444;-51
2022/08/26 01:11:55;;;;;;;9.50;8.33;;;;;;;;;;4993535;28;20420;-50
2022/08/26 01:14:22;;;;;;;13.37;9.37;;;;;;;;;;4994104;28;20440;-51
2022/08/26 01:16:48;;;;;;;13.77;9.43;;;;;;;;;;4994569;28;20459;-50
2022/08/26 01:19:30;;;;;;;9.57;8.47;;;;;;;;;;4995253;28;20450;-51
2022/08/26 01:22:01;;;;;;;11.47;9.47;;;;;;;;;;4994812;28;20473;-51
2022/08/26 01:24:28;;;;;;;12.40;9.10;;;;;;;;;;4995039;28;20421;-51
2022/08/26 01:27:00;;;;;;;11.17;9.97;;;;;;;;;;4994920;28;20404;-51
2022/08/26 01:29:28;;;;;;;9.10;8.20;;;;;;;;;;4994653;28;20436;-51
2022/08/26 01:31:55;;;;;;;9.37;8.20;;;;;;;;;;4994459;28;20439;-50
2022/08/26 01:34:27;;;;;;;10.93;8.40;;;;;;;;;;4994660;28;20927;-51
2022/08/26 01:37:13;;;;;;;12.33;7.67;;;;;;;;;;4994810;28;20427;-52
2022/08/26 01:39:39;;;;;;;10.80;8.43;;;;;;;;;;4994192;28;20531;-49
2022/08/26 01:42:07;;;;;;;10.00;8.53;;;;;;;;;;4994071;28;20519;-52
2022/08/26 01:44:39;;;;;;;11.83;8.67;;;;;;;;;;4992598;28;20490;-51
2022/08/26 01:47:06;;;;;;;8.83;8.03;;;;;;;;;;4994401;28;20479;-50
2022/08/26 01:49:33;;;;;;;12.77;8.13;;;;;;;;;;4994003;28;20476;-52
2022/08/26 01:51:59;;;;;;;11.27;8.90;;;;;;;;;;4994470;28;20502;-51
2022/08/26 01:54:25;;;;;;;9.87;8.93;;;;;;;;;;4994717;28;20420;-52
2022/08/26 01:56:52;;;;;;;10.77;9.67;;;;;;;;;;4994413;28;20408;-51
2022/08/26 01:59:20;;;;;;;9.97;8.80;;;;;;;;;;4994007;28;20541;-50
2022/08/26 02:01:46;;;;;;;9.30;8.30;;;;;;;;;;4994287;28;20581;-50
2022/08/26 02:04:16;;;;;;;10.53;8.40;;;;;;;;;;4994592;28;20408;-50
2022/08/26 02:06:43;;;;;;;14.77;9.17;;;;;;;;;;4994479;28;20467;-51
2022/08/26 02:09:10;;;;;;;9.63;8.63;;;;;;;;;;4974657;28;20456;-52
2022/08/26 02:11:37;;;;;;;12.03;9.40;;;;;;;;;;4974613;28;20401;-50
2022/08/26 02:14:04;;;;;;;15.90;9.43;;;;;;;;;;4984241;28;20459;-51
2022/08/26 02:16:36;;;;;;;10.33;9.07;;;;;;;;;;4994203;28;20414;-51
2022/08/26 02:19:03;;;;;;;12.80;11.50;;;;;;;;;;4993945;28;20486;-50
2022/08/26 02:21:29;;;;;;;11.07;9.70;;;;;;;;;;4993249;28;20463;-51
2022/08/26 02:23:56;;;;;;;15.60;10.20;;;;;;;;;;4993586;28;20423;-52
2022/08/26 02:26:24;;;;;;;11.10;9.97;;;;;;;;;;4993118;28;20423;-52
2022/08/26 02:28:58;;;;;;;12.20;10.03;;;;;;;;;;4993540;28;20931;-50
2022/08/26 02:31:24;;;;;;;11.97;10.60;;;;;;;;;;4993665;28;20498;-50
2022/08/26 02:33:50;;;;;;;10.70;9.60;;;;;;;;;;4993657;28;20432;-51
2022/08/26 02:36:23;;;;;;;11.40;9.63;;;;;;;;;;4993199;28;20481;-51
2022/08/26 02:38:49;;;;;;;13.30;10.17;;;;;;;;;;4993207;28;20446;-51
2022/08/26 02:41:15;;;;;;;11.97;10.87;;;;;;;;;;4993309;28;20470;-51
2022/08/26 02:43:41;;;;;;;9.07;8.27;;;;;;;;;;4991109;28;20438;-50
2022/08/26 02:46:07;;;;;;;11.50;9.27;;;;;;;;;;4993477;28;20426;-50
2022/08/26 02:48:33;;;;;;;14.20;9.80;;;;;;;;;;4991727;28;20423;-51
2022/08/26 02:50:59;;;;;;;11.77;10.57;;;;;;;;;;4993125;28;20443;-50
2022/08/26 02:53:26;;;;;;;11.00;9.00;;;;;;;;;;4993340;28;20499;-50
2022/08/26 02:55:52;;;;;;;10.80;9.70;;;;;;;;;;4993250;28;20945;-50
2022/08/26 02:58:18;;;;;;;10.47;9.37;;;;;;;;;;4993273;28;20507;-52
2022/08/26 03:00:45;;;;;;;11.30;9.97;;;;;;;;;;4992752;28;20535;-50
2022/08/26 03:03:11;;;;;;;12.97;10.20;;;;;;;;;;4992841;28;20811;-51
2022/08/26 03:05:37;;;;;;;10.90;9.80;;;;;;;;;;4992905;28;20454;-53
2022/08/26 03:08:03;;;;;;;14.33;10.00;;;;;;;;;;4993260;28;20461;-50
2022/08/26 03:10:30;;;;;;;11.03;9.70;;;;;;;;;;4992800;28;20601;-51
2022/08/26 03:12:56;;;;;;;13.23;10.47;;;;;;;;;;4991857;28;20509;-52
2022/08/26 03:15:23;;;;;;;14.50;11.03;;;;;;;;;;4992012;28;20438;-50
2022/08/26 03:17:49;;;;;;;11.03;9.93;;;;;;;;;;4992346;28;20430;-50
2022/08/26 03:20:15;;;;;;;14.43;10.40;;;;;;;;;;4992219;28;20465;-51
2022/08/26 03:22:42;;;;;;;16.90;11.03;;;;;;;;;;4992910;28;20457;-51
2022/08/26 03:25:09;;;;;;;14.33;11.07;;;;;;;;;;4992566;28;20424;-52
2022/08/26 03:27:35;;;;;;;12.40;11.20;;;;;;;;;;4992676;28;20525;-52
2022/08/26 03:32:45;;;;;;;15.90;11.80;;;;;;;;;;4992730;28;20930;-52
2022/08/26 03:35:12;;;;;;;13.33;11.93;;;;;;;;;;4990219;28;20435;-51
2022/08/26 03:37:38;;;;;;;13.63;11.30;;;;;;;;;;4992065;28;20424;-50
2022/08/26 03:40:06;;;;;;;16.37;11.50;;;;;;;;;;4991994;28;20443;-50
2022/08/26 03:42:32;;;;;;;12.50;11.40;;;;;;;;;;4992520;28;20560;-50
2022/08/26 03:44:57;;;;;;;15.33;13.73;;;;;;;;;;4992049;28;20521;-52
2022/08/26 03:47:23;;;;;;;15.53;12.50;;;;;;;;;;4992457;28;20415;-49
2022/08/26 03:49:49;;;;;;;13.63;11.77;;;;;;;;;;4992473;28;20429;-50
2022/08/26 03:52:15;;;;;;;14.90;11.50;;;;;;;;;;4992499;28;20516;-51
2022/08/26 03:54:42;;;;;;;14.80;11.90;;;;;;;;;;4992569;28;20552;-51
2022/08/26 03:57:08;;;;;;;16.90;15.10;;;;;;;;;;4992579;28;20421;-51
2022/08/26 03:59:34;;;;;;;23.00;17.10;;;;;;;;;;4992287;28;20951;-51
2022/08/26 04:02:00;;;;;;;18.47;16.60;;;;;;;;;;4992233;28;20815;-50
2022/08/26 04:04:26;;;;;;;19.93;16.77;;;;;;;;;;4988941;28;20572;-51
2022/08/26 04:06:55;;;;;;;18.10;16.03;;;;;;;;;;4992370;28;20420;-52
2022/08/26 04:09:21;;;;;;;22.53;16.93;;;;;;;;;;4992220;28;20497;-51
2022/08/26 04:11:48;;;;;;;19.93;17.80;;;;;;;;;;4992368;28;20908;-50
2022/08/26 04:14:15;;;;;;;18.90;16.90;;;;;;;;;;4992351;28;20410;-50
2022/08/26 04:16:43;;;;;;;26.63;19.53;;;;;;;;;;4992244;28;20436;-50
2022/08/26 04:19:09;;;;;;;28.40;23.20;;;;;;;;;;4991574;28;20447;-50
2022/08/26 04:21:37;;;;;;;24.70;21.90;;;;;;;;;;4991984;28;20456;-50
2022/08/26 04:24:03;;;;;;;29.60;23.37;;;;;;;;;;4992266;28;20397;-51
2022/08/26 04:26:35;;;;;;;29.90;26.67;;;;;;;;;;4991705;28;20429;-52
2022/08/26 04:29:01;;;;;;;41.67;32.33;;;;;;;;;;4991804;28;20784;-50
2022/08/26 04:31:27;;;;;;;37.27;28.90;;;;;;;;;;4991826;28;20969;-51
2022/08/26 04:33:55;;;;;;;37.97;29.40;;;;;;;;;;4991289;28;20499;-52
2022/08/26 04:36:22;;;;;;;38.43;30.23;;;;;;;;;;4990301;28;20435;-51
2022/08/26 04:38:49;;;;;;;32.57;29.00;;;;;;;;;;4991677;28;20935;-50
2022/08/26 04:41:16;;;;;;;34.93;29.20;;;;;;;;;;4991507;28;20979;-50
2022/08/26 04:43:42;;;;;;;38.77;30.73;;;;;;;;;;4992224;28;20423;-50
2022/08/26 04:46:10;;;;;;;36.87;27.83;;;;;;;;;;4992663;28;20418;-50
2022/08/26 04:48:36;;;;;;;29.33;25.20;;;;;;;;;;4995646;28;20486;-50
2022/08/26 04:51:03;;;;;;;30.33;27.10;;;;;;;;;;4996372;28;20504;-49
2022/08/26 04:53:29;;;;;;;34.40;27.97;;;;;;;;;;4995732;28;20416;-50
2022/08/26 04:55:55;;;;;;;34.30;28.23;;;;;;;;;;4995498;28;20421;-52
2022/08/26 04:58:23;;;;;;;38.73;33.13;;;;;;;;;;4995225;28;20418;-52
2022/08/26 05:00:51;;;;;;;45.40;36.07;;;;;;;;;;4994937;28;20494;-50
2022/08/26 05:03:17;;;;;;;47.97;39.33;;;;;;;;;;4994211;28;20431;-50
2022/08/26 05:05:44;;;;;;;52.73;40.83;;;;;;;;;;4995292;28;20497;-51
2022/08/26 05:08:11;;;;;;;53.53;39.83;;;;;;;;;;4995342;28;20548;-51
2022/08/26 05:10:47;;;;;;;52.63;42.27;;;;;;;;;;4994921;28;20455;-50
2022/08/26 05:13:14;;;;;;;58.70;46.37;;;;;;;;;;4995065;28;20808;-49
2022/08/26 05:15:41;;;;;;;54.63;42.20;;;;;;;;;;4995008;28;20436;-52
2022/08/26 05:18:07;;;;;;;52.47;43.20;;;;;;;;;;4995045;28;20477;-52
2022/08/26 05:20:38;;;;;;;53.23;42.63;;;;;;;;;;4994775;28;20436;-50
2022/08/26 05:23:04;;;;;;;58.23;44.30;;;;;;;;;;4994706;28;20458;-51
2022/08/26 05:25:30;;;;;;;58.63;47.10;;;;;;;;;;4994930;28;20438;-52
2022/08/26 05:27:56;;;;;;;52.70;43.87;;;;;;;;;;4994840;28;20482;-50
2022/08/26 05:30:22;;;;;;;63.07;48.57;;;;;;;;;;4994751;28;20419;-51
2022/08/26 05:32:49;;;;;;;65.60;49.73;;;;;;;;;;4994773;28;20423;-50
2022/08/26 05:35:16;;;;;;;76.40;54.00;;;;;;;;;;4999379;23;20710;-51
2022/08/26 05:37:42;;;;;;;65.13;49.67;;;;;;;;;;4973585;28;20861;-52
2022/08/26 05:40:09;;;;;;;72.23;52.70;;;;;;;;;;4974445;28;20416;-50
2022/08/26 05:42:35;;;;;;;83.80;57.20;;;;;;;;;;4975092;28;20467;-51
2022/08/26 05:45:01;;;;;;;83.23;56.67;;;;;;;;;;4974949;28;20474;-51
2022/08/26 05:47:27;;;;;;;86.30;58.03;;;;;;;;;;4974614;28;20421;-50
2022/08/26 05:49:54;;;;;;;87.63;58.80;;;;;;;;;;4974972;28;20409;-50
2022/08/26 05:52:20;;;;;;;94.13;60.13;;;;;;;;;;4974876;28;20416;-50
2022/08/26 05:54:46;;;;;;;88.97;57.70;;;;;;;;;;4955998;28;20464;-50
2022/08/26 05:57:12;;;;;;;89.83;57.30;;;;;;;;;;4953644;28;20971;-50
2022/08/26 05:59:38;;;;;;;86.33;57.73;;;;;;;;;;4953791;29;21000;-50
2022/08/26 06:02:05;;;;;;;100.10;58.23;;;;;;;;;;4954230;29;20544;-50
2022/08/26 06:04:31;;;;;;;80.10;54.80;;;;;;;;;;4966875;28;20528;-50
2022/08/26 06:06:58;;;;;;;81.83;54.23;;;;;;;;;;4956617;28;20512;-51
2022/08/26 06:09:25;;;;;;;93.20;55.50;;;;;;;;;;4957959;28;20529;-50
2022/08/26 06:11:51;;;;;;;90.87;58.40;;;;;;;;;;4969590;28;20808;-50
2022/08/26 06:14:17;;;;;;;79.87;53.97;;;;;;;;;;4974887;28;20409;-50
2022/08/26 06:16:43;;;;;;;93.87;58.50;;;;;;;;;;4974586;28;20432;-51
2022/08/26 06:19:11;;;;;;;78.20;54.10;;;;;;;;;;4974330;28;20508;-51
2022/08/26 06:21:38;;;;;;;81.43;52.87;;;;;;;;;;4973951;28;20464;-50
2022/08/26 06:26:59;;;;;;;79.77;54.10;;;;;;;;;;4973749;28;20498;-50
2022/08/26 06:29:28;;;;;;;83.80;53.30;;;;;;;;;;4974248;28;20916;-52
2022/08/26 06:31:54;;;;;;;68.33;48.83;;;;;;;;;;4974119;28;20424;-52
2022/08/26 06:34:20;;;;;;;72.03;50.10;;;;;;;;;;4971531;28;20417;-51
2022/08/26 06:36:48;;;;;;;71.70;49.07;;;;;;;;;;4973089;28;20551;-50
2022/08/26 06:39:15;;;;;;;70.63;48.43;;;;;;;;;;4973729;28;20421;-50
2022/08/26 06:41:44;;;;;;;62.93;47.73;;;;;;;;;;4973895;28;20468;-50
2022/08/26 06:44:11;;;;;;;67.00;46.33;;;;;;;;;;4973950;28;20413;-50
2022/08/26 06:46:37;;;;;;;77.40;49.70;;;;;;;;;;4973973;28;20425;-50
2022/08/26 06:49:04;;;;;;;68.30;48.83;;;;;;;;;;4973624;28;20424;-50
2022/08/26 06:51:31;;;;;;;71.70;50.23;;;;;;;;;;4974497;28;20405;-50
2022/08/26 06:54:01;;;;;;;65.90;47.47;;;;;;;;;;4973745;28;20416;-52
2022/08/26 06:56:28;;;;;;;68.93;46.40;;;;;;;;;;4973914;28;20441;-50
2022/08/26 06:58:54;;;;;;;63.20;46.00;;;;;;;;;;4973389;28;20879;-50
2022/08/26 07:01:22;;;;;;;80.30;49.17;;;;;;;;;;4973625;28;20488;-50
2022/08/26 07:03:49;;;;;;;68.27;47.50;;;;;;;;;;4973023;28;20417;-51
2022/08/26 07:06:18;;;;;;;72.37;47.40;;;;;;;;;;4972212;28;20780;-50
2022/08/26 07:08:44;;;;;;;70.77;48.87;;;;;;;;;;4972659;28;20490;-50
2022/08/26 07:11:11;;;;;;;57.87;43.77;;;;;;;;;;4973678;28;20451;-50
2022/08/26 07:13:37;;;;;;;66.57;48.33;;;;;;;;;;4973009;28;20417;-50
2022/08/26 07:16:07;;;;;;;66.73;46.87;;;;;;;;;;4972955;28;20448;-51
2022/08/26 07:18:34;;;;;;;68.77;46.80;;;;;;;;;;4973227;28;20543;-50
2022/08/26 07:21:01;;;;;;;59.60;45.90;;;;;;;;;;4973130;28;20424;-50
2022/08/26 07:23:27;;;;;;;67.37;45.10;;;;;;;;;;4971901;28;20479;-50
2022/08/26 07:25:53;;;;;;;62.43;43.20;;;;;;;;;;4972651;28;20838;-52
2022/08/26 07:28:19;;;;;;;52.47;40.77;;;;;;;;;;4972580;28;20415;-50
2022/08/26 07:30:45;;;;;;;64.13;44.70;;;;;;;;;;4972396;28;20483;-51
2022/08/26 07:33:11;;;;;;;59.67;42.30;;;;;;;;;;4972851;28;20929;-50
2022/08/26 07:35:38;;;;;;;59.13;41.50;;;;;;;;;;4970998;28;20494;-50
2022/08/26 07:38:04;;;;;;;57.23;43.27;;;;;;;;;;4972705;28;20441;-50
2022/08/26 07:40:30;;;;;;;52.63;42.10;;;;;;;;;;4972428;28;20432;-51
2022/08/26 07:42:56;;;;;;;54.47;42.80;;;;;;;;;;4972452;28;20496;-50
2022/08/26 07:45:22;;;;;;;55.73;43.30;;;;;;;;;;4973005;28;20448;-50
2022/08/26 07:47:49;;;;;;;60.03;45.57;;;;;;;;;;4972880;28;20417;-50
2022/08/26 07:50:15;;;;;;;59.53;43.20;;;;;;;;;;4972905;28;20405;-50
2022/08/26 07:52:41;;;;;;;52.60;42.33;;;;;;;;;;4972654;28;21188;-56
2022/08/26 07:55:08;;;;;;;57.47;44.10;;;;;;;;;;4972259;28;20471;-50
2022/08/26 07:57:34;;;;;;;56.03;43.90;;;;;;;;;;4972338;28;20416;-51
2022/08/26 08:00:00;;;;;;;59.07;45.60;;;;;;;;;;4972827;28;20463;-51
2022/08/26 08:02:27;;;;;;;57.70;44.40;;;;;;;;;;4971450;28;20461;-50
2022/08/26 08:04:55;;;;;;;50.50;41.80;;;;;;;;;;4970530;28;20495;-50
2022/08/26 08:07:22;;;;;;;54.60;41.90;;;;;;;;;;4972678;28;20411;-50
2022/08/26 08:09:48;;;;;;;54.50;42.80;;;;;;;;;;4972787;28;20413;-50
2022/08/26 08:12:15;;;;;;;54.17;43.13;;;;;;;;;;4973108;28;20758;-50
2022/08/26 08:14:44;;;;;;;55.80;42.30;;;;;;;;;;4970868;28;20499;-50
2022/08/26 08:17:10;;;;;;;54.43;43.00;;;;;;;;;;4972893;28;20412;-50
2022/08/26 08:19:36;;;;;;;57.00;43.97;;;;;;;;;;4971774;28;20421;-50
2022/08/26 08:22:04;;;;;;;50.83;41.13;;;;;;;;;;4976858;28;20470;-50
2022/08/26 08:24:31;;;;;;;53.40;42.10;;;;;;;;;;4976226;28;20413;-52
2022/08/26 08:26:57;;;;;;;47.33;38.80;;;;;;;;;;4976751;28;20453;-50
2022/08/26 08:29:23;;;;;;;43.87;37.70;;;;;;;;;;4976167;28;20495;-50
2022/08/26 08:31:50;;;;;;;50.00;39.93;;;;;;;;;;4976599;28;20480;-50
2022/08/26 08:34:16;;;;;;;48.60;39.73;;;;;;;;;;4975310;28;20480;-51
2022/08/26 08:36:45;;;;;;;46.53;38.47;;;;;;;;;;4976260;28;20445;-53
2022/08/26 08:39:11;;;;;;;46.80;37.10;;;;;;;;;;4976116;28;20417;-50
2022/08/26 08:41:37;;;;;;;41.30;36.10;;;;;;;;;;4976335;28;20464;-50
2022/08/26 08:44:03;;;;;;;47.37;37.50;;;;;;;;;;4976218;28;20424;-50
2022/08/26 08:46:29;;;;;;;43.27;36.70;;;;;;;;;;4976046;28;20910;-50
2022/08/26 08:48:58;;;;;;;49.00;40.20;;;;;;;;;;4975770;28;20436;-52
2022/08/26 08:51:39;;;;;;;46.97;36.07;;;;;;;;;;4976214;28;20475;-50
2022/08/26 08:54:06;;;;;;;45.97;37.17;;;;;;;;;;4975778;28;20485;-50
2022/08/26 08:56:35;;;;;;;49.93;34.13;;;;;;;;;;4975824;28;20521;-50
2022/08/26 08:59:21;;;;;;;43.60;36.47;;;;;;;;;;4975920;28;20458;-51
2022/08/26 09:02:05;;;;;;;43.80;36.57;;;;;;;;;;4975875;28;20461;-50
2022/08/26 09:04:40;;;;;;;41.70;35.10;;;;;;;;;;4975103;28;21009;-50
2022/08/26 09:07:08;;;;;;;41.67;34.37;;;;;;;;;;4975761;28;20426;-50
2022/08/26 09:09:44;;;;;;;44.13;36.17;;;;;;;;;;4972725;28;20851;-50
2022/08/26 09:12:15;;;;;;;43.77;36.40;;;;;;;;;;4975574;28;20430;-50
2022/08/26 09:14:42;;;;;;;43.77;38.20;;;;;;;;;;4975918;28;20404;-50
2022/08/26 09:17:16;;;;;;;46.70;39.77;;;;;;;;;;4975984;28;20750;-50
2022/08/26 09:19:45;;;;;;;46.43;34.50;;;;;;;;;;4975238;28;20788;-50
2022/08/26 09:22:26;;;;;;;38.53;30.23;;;;;;;;;;4975445;28;20494;-50
2022/08/26 09:24:52;;;;;;;37.47;31.10;;;;;;;;;;4975380;28;20442;-52
2022/08/26 09:27:36;;;;;;;40.27;28.27;;;;;;;;;;4975584;28;20415;-50
2022/08/26 09:30:01;;;;;;;37.70;30.57;;;;;;;;;;4975162;28;20425;-50
2022/08/26 09:32:28;;;;;;;37.00;30.70;;;;;;;;;;4974728;28;20507;-50
2022/08/26 09:35:21;;;;;;;36.23;31.20;;;;;;;;;;4975000;28;20444;-50
2022/08/26 09:37:48;;;;;;;40.40;31.27;;;;;;;;;;4959068;28;20436;-50
2022/08/26 09:40:22;;;;;;;38.20;31.53;;;;;;;;;;4975003;28;20420;-50
2022/08/26 09:43:07;;;;;;;37.97;33.80;;;;;;;;;;4974528;28;20467;-50
2022/08/26 09:45:33;;;;;;;36.67;32.77;;;;;;;;;;4974733;28;20479;-50
2022/08/26 09:47:59;;;;;;;38.23;33.03;;;;;;;;;;4975263;28;20456;-50
2022/08/26 09:50:28;;;;;;;36.93;32.97;;;;;;;;;;4974802;28;20949;-50
2022/08/26 09:53:03;;;;;;;37.93;31.00;;;;;;;;;;4975124;28;20409;-50
2022/08/26 09:55:29;;;;;;;49.20;33.17;;;;;;;;;;4974611;28;21143;-50
2022/08/26 09:57:55;;;;;;;36.90;31.23;;;;;;;;;;4975340;28;20414;-50
2022/08/26 10:00:25;;;;;;;39.30;34.87;;;;;;;;;;4974591;28;20424;-50
2022/08/26 10:02:51;;;;;;;43.83;36.53;;;;;;;;;;4974821;28;20470;-50
2022/08/26 10:05:18;;;;;;;42.53;37.70;;;;;;;;;;4974276;28;20447;-49
2022/08/26 10:07:46;;;;;;;41.50;37.10;;;;;;;;;;4973148;28;20437;-50
2022/08/26 10:10:15;;;;;;;44.10;39.30;;;;;;;;;;4973187;28;20434;-49
2022/08/26 10:12:46;;;;;;;44.40;37.00;;;;;;;;;;4955278;29;20527;-49
2022/08/26 10:15:13;;;;;;;42.30;36.70;;;;;;;;;;4954868;28;20421;-52
2022/08/26 10:17:46;;;;;;;47.17;36.63;;;;;;;;;;4969301;28;20420;-50
2022/08/26 10:20:23;;;;;;;39.47;34.13;;;;;;;;;;4970713;28;20421;-52
2022/08/26 10:22:53;;;;;;;38.90;32.00;;;;;;;;;;4974131;28;20468;-50
2022/08/26 10:25:33;;;;;;;37.00;30.80;;;;;;;;;;4973585;28;20440;-49
2022/08/26 10:28:09;;;;;;;40.17;32.53;;;;;;;;;;4973629;28;20790;-50
2022/08/26 10:30:43;;;;;;;38.20;30.87;;;;;;;;;;4973146;28;20502;-50
2022/08/26 10:33:11;;;;;;;28.50;25.50;;;;;;;;;;4973712;28;20470;-50
2022/08/26 10:35:46;;;;;;;27.70;24.63;;;;;;;;;;4973656;28;20460;-50
2022/08/26 10:38:14;;;;;;;28.03;25.13;;;;;;;;;;4970371;28;20566;-50
2022/08/26 10:40:43;;;;;;;27.77;24.80;;;;;;;;;;4972442;28;20436;-50
2022/08/26 10:43:18;;;;;;;30.83;27.60;;;;;;;;;;4972940;28;20468;-50
2022/08/26 10:45:50;;;;;;;31.60;26.80;;;;;;;;;;4968074;28;20440;-50
2022/08/26 10:48:22;;;;;;;31.47;28.17;;;;;;;;;;4973534;28;20470;-50
2022/08/26 10:50:49;;;;;;;31.23;26.70;;;;;;;;;;4973662;28;20406;-50
2022/08/26 10:53:27;;;;;;;34.63;26.90;;;;;;;;;;4971986;28;20424;-50
2022/08/26 10:55:56;;;;;;;28.70;25.63;;;;;;;;;;4952604;28;20519;-49
2022/08/26 10:58:22;;;;;;;26.67;23.97;;;;;;;;;;4955330;28;20421;-50
2022/08/26 11:03:37;;;;;;;23.77;21.40;;;;;;;;;;4973493;28;21255;-50
2022/08/26 11:06:18;;;;;;;21.33;19.23;;;;;;;;;;4972319;28;20444;-49
2022/08/26 11:08:46;;;;;;;22.10;19.90;;;;;;;;;;4973143;28;21038;-51
2022/08/26 11:11:33;;;;;;;22.87;20.50;;;;;;;;;;4973758;28;20417;-49
2022/08/26 11:14:00;;;;;;;28.77;20.50;;;;;;;;;;4973581;28;20416;-50
2022/08/26 11:16:34;;;;;;;26.60;20.40;;;;;;;;;;4973445;28;20795;-49
2022/08/26 11:19:00;;;;;;;23.00;18.10;;;;;;;;;;4973278;28;20412;-49
2022/08/26 11:21:43;;;;;;;27.73;21.57;;;;;;;;;;4973618;28;20460;-50
2022/08/26 11:24:30;;;;;;;26.43;20.87;;;;;;;;;;4973294;28;20819;-49
2022/08/26 11:26:56;;;;;;;23.73;21.30;;;;;;;;;;4954090;28;20413;-51
2022/08/26 11:29:41;;;;;;;24.33;20.50;;;;;;;;;;4959067;28;20435;-49
2022/08/26 11:32:23;;;;;;;22.13;20.03;;;;;;;;;;4973364;28;20846;-50
2022/08/26 11:34:51;;;;;;;27.37;20.07;;;;;;;;;;4972931;28;20479;-49
2022/08/26 11:37:17;;;;;;;24.50;19.90;;;;;;;;;;4978028;23;20512;-52
2022/08/26 11:39:51;;;;;;;27.13;17.97;;;;;;;;;;4962427;28;20433;-51
2022/08/26 11:42:21;;;;;;;19.77;17.73;;;;;;;;;;4969719;28;20464;-49
2022/08/26 11:44:48;;;;;;;20.00;18.10;;;;;;;;;;4972628;28;20432;-51
2022/08/26 11:47:15;;;;;;;19.10;17.07;;;;;;;;;;4971523;28;20436;-51
2022/08/26 11:49:41;;;;;;;16.27;14.57;;;;;;;;;;4972869;28;20419;-49
2022/08/26 11:52:17;;;;;;;18.60;12.67;;;;;;;;;;4972930;28;20431;-49
2022/08/26 11:55:19;;;;;;;12.90;10.97;;;;;;;;;;4972473;28;20428;-51
2022/08/26 11:57:47;;;;;;;15.43;11.33;;;;;;;;;;4892348;29;20428;-49
2022/08/26 12:00:29;;;;;;;14.70;11.37;;;;;;;;;;4956745;28;20443;-51
2022/08/26 12:02:55;;;;;;;13.67;11.23;;;;;;;;;;4972991;28;20463;-52
2022/08/26 12:05:25;;;;;;;13.60;12.13;;;;;;;;;;4972435;28;20994;-51
2022/08/26 12:07:53;;;;;;;18.00;10.60;;;;;;;;;;4972972;28;20408;-50
2022/08/26 12:10:45;;;;;;;13.17;11.87;;;;;;;;;;4970944;28;20438;-50
2022/08/26 12:13:23;;;;;;;13.17;11.57;;;;;;;;;;4970185;28;20765;-51
2022/08/26 12:15:53;;;;;;;14.67;11.80;;;;;;;;;;4972967;28;20520;-52
2022/08/26 12:18:24;;;;;;;14.10;12.67;;;;;;;;;;4971913;28;20491;-51
2022/08/26 12:20:53;;;;;;;16.63;11.53;;;;;;;;;;4972785;28;20939;-52
2022/08/26 12:23:37;;;;;;;12.60;9.70;;;;;;;;;;4973184;28;20472;-51
2022/08/26 12:26:21;;;;;;;13.47;12.00;;;;;;;;;;4973146;28;20433;-51
2022/08/26 12:28:57;;;;;;;12.60;11.40;;;;;;;;;;4973289;28;20524;-50
2022/08/26 12:31:50;;;;;;;14.23;12.03;;;;;;;;;;4972972;28;20420;-52
2022/08/26 12:34:17;;;;;;;16.87;10.53;;;;;;;;;;4969924;28;20474;-51
2022/08/26 12:36:52;;;;;;;16.20;11.20;;;;;;;;;;4972656;28;20499;-51
2022/08/26 12:39:26;;;;;;;11.43;9.70;;;;;;;;;;4971602;28;20421;-50
2022/08/26 12:41:53;;;;;;;15.00;9.40;;;;;;;;;;4973388;28;21019;-51
2022/08/26 12:44:31;;;;;;;10.20;8.57;;;;;;;;;;4972710;28;20421;-51
2022/08/26 12:47:02;;;;;;;9.13;8.17;;;;;;;;;;4972688;28;20770;-52
2022/08/26 12:49:28;;;;;;;14.83;9.17;;;;;;;;;;4972511;28;20408;-51
2022/08/26 12:51:53;;;;;;;11.73;8.03;;;;;;;;;;4972318;28;20426;-52
2022/08/26 12:54:57;;;;;;;17.90;12.00;;;;;;;;;;4972967;28;20428;-52
2022/08/26 12:57:12;;;;;;;13.33;9.53;;;;;;;;;;4972424;28;20799;-52
2022/08/26 12:59:38;;;;;;;10.57;8.33;;;;;;;;;;4972895;28;20845;-52
2022/08/26 13:02:04;;;;;;;13.97;9.27;;;;;;;;;;4970199;28;20926;-52
2022/08/26 13:04:35;;;;;;;10.03;7.70;;;;;;;;;;4970955;28;20432;-51
2022/08/26 13:07:23;;;;;;;9.93;7.10;;;;;;;;;;4972928;28;20431;-51
2022/08/26 13:09:50;;;;;;;9.53;8.30;;;;;;;;;;4976150;28;20455;-51
2022/08/26 13:12:30;;;;;;;13.40;7.60;;;;;;;;;;4975592;28;20431;-52
2022/08/26 13:14:57;;;;;;;10.83;7.37;;;;;;;;;;4976995;28;21161;-51
2022/08/26 13:17:24;;;;;;;17.27;9.67;;;;;;;;;;4975389;28;20992;-50
2022/08/26 13:19:50;;;;;;;13.03;8.43;;;;;;;;;;4976186;28;20422;-52
2022/08/26 13:22:18;;;;;;;13.30;7.50;;;;;;;;;;4975176;28;20467;-51
2022/08/26 13:24:45;;;;;;;13.27;6.90;;;;;;;;;;4976039;28;20495;-51
2022/08/26 13:27:13;;;;;;;11.50;6.80;;;;;;;;;;4974528;28;20458;-51
2022/08/26 13:29:39;;;;;;;11.33;6.73;;;;;;;;;;4976171;28;20785;-52
2022/08/26 13:32:06;;;;;;;11.90;6.60;;;;;;;;;;4975893;28;20522;-51
2022/08/26 13:34:32;;;;;;;10.47;7.30;;;;;;;;;;4976154;28;20412;-50
2022/08/26 13:36:59;;;;;;;7.77;6.37;;;;;;;;;;4975382;28;20451;-51
2022/08/26 13:39:25;;;;;;;7.80;6.37;;;;;;;;;;4975819;28;20428;-50
2022/08/26 13:41:52;;;;;;;12.80;7.10;;;;;;;;;;4975689;28;20486;-50
2022/08/26 13:44:18;;;;;;;9.43;6.90;;;;;;;;;;4974131;28;20427;-49
2022/08/26 13:46:44;;;;;;;13.53;6.63;;;;;;;;;;4974649;28;20427;-49
2022/08/26 13:49:10;;;;;;;6.77;5.73;;;;;;;;;;4974965;28;20452;-49
2022/08/26 13:51:36;;;;;;;7.93;6.87;;;;;;;;;;4975361;28;20418;-49
2022/08/26 13:54:03;;;;;;;9.13;6.97;;;;;;;;;;4974836;28;20780;-49
2022/08/26 13:56:30;;;;;;;7.63;6.77;;;;;;;;;;4973897;28;20943;-52
2022/08/26 13:58:57;;;;;;;9.33;7.03;;;;;;;;;;4973605;28;20937;-49
2022/08/26 14:01:23;;;;;;;12.73;7.33;;;;;;;;;;4975042;28;20407;-49
2022/08/26 14:03:49;;;;;;;10.23;6.87;;;;;;;;;;4974843;28;20929;-49
2022/08/26 14:06:15;;;;;;;7.07;5.80;;;;;;;;;;4974799;28;20466;-50
2022/08/26 14:08:41;;;;;;;10.00;6.13;;;;;;;;;;4974339;28;20420;-49
2022/08/26 14:11:08;;;;;;;7.70;6.90;;;;;;;;;;4973702;28;20407;-52
2022/08/26 14:13:35;;;;;;;12.33;6.00;;;;;;;;;;4974604;28;20423;-50
2022/08/26 14:16:02;;;;;;;10.40;6.37;;;;;;;;;;4974395;28;20435;-50
2022/08/26 14:18:30;;;;;;;21.73;6.77;;;;;;;;;;4955164;28;20420;-51
2022/08/26 14:20:56;;;;;;;19.47;6.27;;;;;;;;;;4968272;28;20427;-50
2022/08/26 14:23:22;;;;;;;6.73;4.90;;;;;;;;;;4974407;28;20470;-50
2022/08/26 14:25:48;;;;;;;7.40;5.53;;;;;;;;;;4974501;28;20436;-50
2022/08/26 14:28:14;;;;;;;8.60;5.83;;;;;;;;;;4973411;28;20488;-50
2022/08/26 14:30:41;;;;;;;10.93;6.23;;;;;;;;;;4973860;28;20517;-51
2022/08/26 14:33:10;;;;;;;7.00;5.20;;;;;;;;;;4974453;28;20430;-50
2022/08/26 14:35:36;;;;;;;8.47;6.27;;;;;;;;;;4973977;28;20432;-50
2022/08/26 14:38:02;;;;;;;6.87;5.13;;;;;;;;;;4974476;28;20839;-50
2022/08/26 14:40:29;;;;;;;20.53;12.37;;;;;;;;;;4974447;28;20455;-50